Time;durP1;ratioP1;P1;durP2;ratioP2;P2;SDS_P1;SDS_P2;PMS_P1;PMS_P2;Temp;Humidity;BMP_temperature;BMP_pressure;BME280_temperature;BME280_humidity;BME280_pressure;Samples;Min_cycle;Max_cycle;Signal;HPM_P1;HPM_P2
2022/02/14 00:01:18;;;;;;;2.35;1.23;;;19.50;60.30;;;;;;5034016;28;20039;-75
2022/02/14 00:03:44;;;;;;;3.17;1.30;;;19.50;60.30;;;;;;5033534;28;20037;-75
2022/02/14 00:06:10;;;;;;;2.45;1.33;;;19.40;60.30;;;;;;5015850;28;20029;-75
2022/02/14 00:08:35;;;;;;;2.65;1.30;;;19.50;60.40;;;;;;5033632;28;20406;-75
2022/02/14 00:11:01;;;;;;;3.72;1.30;;;19.40;60.30;;;;;;5033533;28;20017;-76
2022/02/14 00:13:26;;;;;;;2.85;1.20;;;19.40;60.40;;;;;;5033459;28;20079;-76
2022/02/14 00:15:52;;;;;;;2.13;1.30;;;19.40;60.40;;;;;;5033586;28;20411;-75
2022/02/14 00:18:18;;;;;;;2.00;1.20;;;19.40;60.40;;;;;;5033568;28;20108;-75
2022/02/14 00:20:44;;;;;;;1.70;1.17;;;19.40;60.40;;;;;;5033105;28;20025;-76
2022/02/14 00:23:09;;;;;;;2.65;1.48;;;19.40;60.40;;;;;;5033599;28;20049;-75
2022/02/14 00:25:35;;;;;;;1.90;1.10;;;19.40;60.50;;;;;;5033366;28;20116;-76
2022/02/14 00:28:00;;;;;;;2.50;1.42;;;19.30;60.40;;;;;;5033476;28;20548;-75
2022/02/14 00:30:26;;;;;;;2.47;1.20;;;19.30;60.40;;;;;;5033231;28;20432;-75
2022/02/14 00:32:52;;;;;;;1.95;1.10;;;19.30;60.40;;;;;;5015610;28;20051;-75
2022/02/14 00:35:18;;;;;;;3.00;1.20;;;19.30;60.40;;;;;;5033035;28;20025;-75
2022/02/14 00:37:44;;;;;;;1.90;1.15;;;19.30;60.50;;;;;;5033121;28;20051;-75
2022/02/14 00:40:10;;;;;;;2.17;1.38;;;19.30;60.50;;;;;;5015482;28;20022;-75
2022/02/14 00:42:35;;;;;;;1.88;1.35;;;19.30;60.50;;;;;;5015446;28;20084;-76
2022/02/14 00:45:01;;;;;;;1.77;1.10;;;19.30;60.50;;;;;;5015579;28;20549;-75
2022/02/14 00:47:27;;;;;;;3.63;1.20;;;19.30;60.60;;;;;;5033095;28;20447;-75
2022/02/14 00:49:52;;;;;;;2.15;1.30;;;19.30;60.60;;;;;;5032677;28;20053;-75
2022/02/14 00:52:18;;;;;;;2.70;1.30;;;19.30;60.60;;;;;;5032629;28;20053;-74
2022/02/14 00:54:43;;;;;;;3.55;1.20;;;19.20;60.50;;;;;;5032799;28;20032;-74
2022/02/14 00:57:10;;;;;;;2.80;1.17;;;19.20;60.60;;;;;;5015309;28;20476;-74
2022/02/14 00:59:35;;;;;;;1.38;1.00;;;19.20;60.60;;;;;;5032799;28;20383;-74
2022/02/14 01:02:01;;;;;;;1.60;1.10;;;19.20;60.60;;;;;;5015323;28;20025;-74
2022/02/14 01:04:27;;;;;;;2.22;1.20;;;19.20;60.60;;;;;;5014719;28;20097;-74
2022/02/14 01:06:53;;;;;;;2.30;0.98;;;19.20;60.70;;;;;;5032731;28;20025;-74
2022/02/14 01:09:18;;;;;;;1.08;0.98;;;19.20;60.70;;;;;;5032742;28;20076;-75
2022/02/14 01:11:44;;;;;;;1.67;0.98;;;19.20;60.70;;;;;;5014855;28;20056;-75
2022/02/14 01:14:09;;;;;;;1.15;1.00;;;19.10;60.60;;;;;;5032646;28;20017;-75
2022/02/14 01:16:35;;;;;;;1.35;1.10;;;19.20;60.80;;;;;;5014707;28;20064;-75
2022/02/14 01:19:01;;;;;;;1.77;1.00;;;19.10;60.70;;;;;;5014571;28;20403;-75
2022/02/14 01:21:26;;;;;;;1.83;1.08;;;19.10;60.70;;;;;;5032411;28;20052;-75
2022/02/14 01:23:52;;;;;;;2.05;1.05;;;19.10;60.80;;;;;;5032601;28;20026;-75
2022/02/14 01:26:17;;;;;;;1.98;1.10;;;19.10;60.80;;;;;;5032155;28;20053;-75
2022/02/14 01:28:43;;;;;;;1.45;1.08;;;19.10;60.80;;;;;;5032118;28;20395;-75
2022/02/14 01:31:09;;;;;;;0.80;0.80;;;19.10;60.80;;;;;;5032456;28;20029;-74
2022/02/14 01:33:35;;;;;;;1.52;1.02;;;19.10;60.90;;;;;;5032009;28;20021;-75
2022/02/14 01:36:00;;;;;;;2.95;1.20;;;19.10;60.90;;;;;;5032400;28;20020;-74
2022/02/14 01:38:26;;;;;;;2.83;1.30;;;19.10;60.90;;;;;;5032239;28;20032;-74
2022/02/14 01:40:52;;;;;;;1.38;1.00;;;19.10;60.90;;;;;;5032223;28;20033;-75
2022/02/14 01:43:17;;;;;;;1.55;0.98;;;19.00;61.40;;;;;;5014688;28;20395;-74
2022/02/14 01:45:43;;;;;;;1.15;0.80;;;19.00;60.90;;;;;;5014531;28;20488;-74
2022/02/14 01:48:09;;;;;;;1.20;0.85;;;19.00;61.10;;;;;;5032529;28;20029;-74
2022/02/14 01:50:35;;;;;;;1.73;0.98;;;19.00;60.90;;;;;;5032084;28;20064;-74
2022/02/14 01:53:00;;;;;;;2.78;1.27;;;19.00;61.00;;;;;;4997907;28;20061;-74
2022/02/14 01:55:26;;;;;;;1.55;0.80;;;19.00;61.00;;;;;;5014545;28;20033;-74
2022/02/14 01:57:52;;;;;;;1.15;1.02;;;19.00;61.00;;;;;;5032175;28;20026;-74
2022/02/14 02:00:19;;;;;;;2.13;1.08;;;19.00;61.00;;;;;;5032124;28;20081;-75
2022/02/14 02:02:45;;;;;;;1.60;0.93;;;18.90;61.00;;;;;;5014451;28;20045;-75
2022/02/14 02:05:11;;;;;;;1.50;1.05;;;19.00;61.10;;;;;;5032076;28;20064;-75
2022/02/14 02:07:36;;;;;;;1.40;0.90;;;18.90;61.00;;;;;;5014269;28;20086;-76
2022/02/14 02:10:05;;;;;;;1.52;0.90;;;18.90;61.00;;;;;;5032006;28;20061;-76
2022/02/14 02:12:31;;;;;;;1.92;0.65;;;18.90;61.00;;;;;;5014298;28;20506;-76
2022/02/14 02:14:59;;;;;;;1.65;0.88;;;18.90;61.00;;;;;;5031677;28;20022;-75
2022/02/14 02:17:28;;;;;;;1.00;0.75;;;18.90;61.10;;;;;;5014321;28;20491;-76
2022/02/14 02:19:54;;;;;;;1.05;0.80;;;18.90;61.10;;;;;;5031966;28;20060;-76
2022/02/14 02:22:19;;;;;;;1.15;0.70;;;18.90;61.20;;;;;;5014240;28;20064;-76
2022/02/14 02:24:46;;;;;;;1.88;0.98;;;18.80;61.10;;;;;;5031813;28;20069;-76
2022/02/14 02:27:12;;;;;;;0.93;0.80;;;18.80;61.10;;;;;;5014550;28;20032;-76
2022/02/14 02:29:38;;;;;;;1.92;0.88;;;18.80;61.20;;;;;;5013946;28;20034;-76
2022/02/14 02:32:05;;;;;;;1.73;1.10;;;18.80;61.20;;;;;;5014186;28;20026;-76
2022/02/14 02:34:31;;;;;;;1.92;0.82;;;18.80;61.20;;;;;;5031775;28;20152;-76
2022/02/14 02:36:58;;;;;;;1.35;0.60;;;18.80;61.20;;;;;;5031708;28;20491;-76
2022/02/14 02:39:24;;;;;;;0.88;0.80;;;18.80;61.20;;;;;;5015734;28;20029;-76
2022/02/14 02:41:49;;;;;;;1.02;0.73;;;18.80;61.20;;;;;;5017694;28;20029;-75
2022/02/14 02:44:15;;;;;;;1.38;0.80;;;18.80;61.30;;;;;;5034943;28;20060;-74
2022/02/14 02:46:41;;;;;;;0.93;0.70;;;18.80;61.30;;;;;;5035149;28;20075;-74
2022/02/14 02:49:23;;;;;;;1.95;1.13;;;18.80;61.40;;;;;;5017754;28;20030;-74
2022/02/14 02:51:50;;;;;;;2.25;1.10;;;18.80;61.30;;;;;;5018561;28;20033;-74
2022/02/14 02:54:16;;;;;;;1.05;0.77;;;18.70;61.30;;;;;;5017497;28;20068;-74
2022/02/14 02:56:43;;;;;;;1.13;0.80;;;18.70;61.40;;;;;;5017367;28;20028;-74
2022/02/14 02:59:08;;;;;;;2.08;1.02;;;18.70;61.40;;;;;;5034905;28;20021;-74
2022/02/14 03:01:34;;;;;;;1.55;0.82;;;18.70;61.40;;;;;;5017141;28;20117;-74
2022/02/14 03:04:04;;;;;;;1.50;0.70;;;18.70;61.40;;;;;;5035013;28;20025;-74
2022/02/14 03:06:29;;;;;;;1.08;0.60;;;18.70;61.40;;;;;;5035069;28;20080;-74
2022/02/14 03:08:55;;;;;;;1.70;0.85;;;18.70;61.40;;;;;;5017156;28;20455;-74
2022/02/14 03:11:21;;;;;;;1.38;0.88;;;18.70;61.40;;;;;;5010708;28;20109;-75
2022/02/14 03:13:47;;;;;;;2.30;0.70;;;18.70;61.50;;;;;;4997277;28;20445;-75
2022/02/14 03:16:13;;;;;;;2.42;0.95;;;18.70;61.50;;;;;;4997291;28;20046;-75
2022/02/14 03:18:39;;;;;;;1.20;0.88;;;18.70;61.40;;;;;;4997430;28;20033;-74
2022/02/14 03:21:05;;;;;;;0.98;0.70;;;18.70;61.40;;;;;;4997387;28;20053;-74
2022/02/14 03:23:31;;;;;;;1.23;0.52;;;18.70;61.40;;;;;;4997508;28;20026;-74
2022/02/14 03:25:56;;;;;;;1.40;0.60;;;18.60;61.30;;;;;;4997427;28;20029;-74
2022/02/14 03:28:22;;;;;;;1.20;0.60;;;18.60;61.40;;;;;;5014542;28;20052;-75
2022/02/14 03:30:47;;;;;;;1.20;0.88;;;18.60;61.40;;;;;;5014521;28;20020;-75
2022/02/14 03:33:13;;;;;;;0.70;0.50;;;18.60;61.50;;;;;;4997289;28;20066;-75
2022/02/14 03:35:39;;;;;;;0.70;0.60;;;18.60;61.50;;;;;;5014648;28;20385;-75
2022/02/14 03:38:06;;;;;;;1.30;0.80;;;18.60;61.50;;;;;;4996970;28;20028;-75
2022/02/14 03:40:33;;;;;;;1.38;0.65;;;18.60;61.60;;;;;;4997510;28;20029;-75
2022/02/14 03:42:58;;;;;;;1.98;1.08;;;18.60;61.60;;;;;;5014055;28;20057;-75
2022/02/14 03:45:24;;;;;;;1.10;0.60;;;18.60;61.60;;;;;;5014445;28;20065;-75
2022/02/14 03:47:49;;;;;;;0.90;0.60;;;18.60;61.70;;;;;;5014446;28;20026;-75
2022/02/14 03:50:16;;;;;;;0.75;0.50;;;18.60;61.60;;;;;;5013789;28;20056;-74
2022/02/14 03:52:42;;;;;;;1.58;0.68;;;18.60;61.60;;;;;;5023600;28;20101;-74
2022/02/14 03:55:08;;;;;;;0.90;0.70;;;18.60;61.70;;;;;;5034078;28;20056;-74
2022/02/14 03:57:34;;;;;;;0.90;0.65;;;18.50;61.70;;;;;;5033498;28;20537;-74
2022/02/14 04:00:00;;;;;;;1.33;0.60;;;18.50;61.70;;;;;;5033801;28;20014;-74
2022/02/14 04:02:25;;;;;;;1.40;0.65;;;18.50;61.70;;;;;;5016311;28;20033;-74
2022/02/14 04:04:53;;;;;;;0.75;0.50;;;18.50;61.70;;;;;;5016111;28;20030;-74
2022/02/14 04:07:19;;;;;;;1.30;0.70;;;18.50;61.70;;;;;;5033975;28;20025;-74
2022/02/14 04:09:44;;;;;;;1.42;0.80;;;18.50;61.70;;;;;;5033552;28;20040;-75
2022/02/14 04:12:10;;;;;;;0.98;0.60;;;18.50;61.80;;;;;;5015526;28;20033;-74
2022/02/14 04:14:36;;;;;;;1.08;0.68;;;18.50;61.80;;;;;;5033916;28;20053;-74
2022/02/14 04:17:01;;;;;;;2.50;0.70;;;18.50;61.80;;;;;;5033378;28;20041;-75
2022/02/14 04:19:27;;;;;;;1.75;0.65;;;18.50;61.80;;;;;;5033478;28;20071;-74
2022/02/14 04:21:53;;;;;;;0.73;0.52;;;18.50;61.90;;;;;;5015719;28;20040;-74
2022/02/14 04:24:18;;;;;;;1.45;0.80;;;18.50;61.90;;;;;;5033465;28;20414;-74
2022/02/14 04:26:44;;;;;;;0.88;0.70;;;18.50;61.90;;;;;;5033263;28;20025;-75
2022/02/14 04:29:09;;;;;;;1.58;0.80;;;18.40;61.80;;;;;;5033565;28;20037;-75
2022/02/14 04:31:35;;;;;;;0.85;0.60;;;18.40;61.90;;;;;;5033102;28;20041;-74
2022/02/14 04:34:01;;;;;;;2.17;0.80;;;18.40;61.90;;;;;;5015485;28;20018;-75
2022/02/14 04:36:26;;;;;;;0.60;0.60;;;18.40;61.90;;;;;;5015782;28;20144;-74
2022/02/14 04:38:52;;;;;;;1.00;0.65;;;18.40;61.90;;;;;;5033033;28;20399;-75
2022/02/14 04:41:18;;;;;;;1.65;0.70;;;18.40;61.90;;;;;;5033006;28;20033;-74
2022/02/14 04:43:43;;;;;;;0.82;0.50;;;18.40;61.90;;;;;;5033074;28;20055;-74
2022/02/14 04:46:09;;;;;;;0.60;0.50;;;18.40;62.00;;;;;;5033062;28;20470;-75
2022/02/14 04:48:35;;;;;;;0.65;0.57;;;18.40;62.00;;;;;;5032961;28;20025;-75
2022/02/14 04:51:00;;;;;;;1.60;0.82;;;18.40;62.00;;;;;;5015194;28;20035;-75
2022/02/14 04:53:26;;;;;;;0.73;0.70;;;18.40;62.00;;;;;;5032773;28;20033;-75
2022/02/14 04:55:51;;;;;;;0.60;0.50;;;18.40;62.10;;;;;;5032679;28;20025;-75
2022/02/14 04:58:17;;;;;;;0.90;0.60;;;18.40;62.00;;;;;;5032811;28;20435;-75
2022/02/14 05:00:43;;;;;;;1.48;0.50;;;18.40;62.10;;;;;;5032776;28;20029;-75
2022/02/14 05:03:08;;;;;;;0.88;0.55;;;18.40;62.10;;;;;;5032161;28;20044;-74
2022/02/14 05:05:34;;;;;;;0.68;0.60;;;18.40;62.20;;;;;;5032845;28;20057;-75
2022/02/14 05:08:00;;;;;;;1.08;0.60;;;18.40;62.20;;;;;;5032607;28;20025;-74
2022/02/14 05:10:26;;;;;;;0.70;0.40;;;18.40;62.20;;;;;;5032226;28;20495;-74
2022/02/14 05:12:51;;;;;;;0.95;0.40;;;18.30;62.10;;;;;;5032390;28;20056;-74
2022/02/14 05:15:17;;;;;;;1.30;0.50;;;18.30;62.20;;;;;;5032513;28;20491;-74
2022/02/14 05:17:44;;;;;;;1.48;0.50;;;18.30;62.10;;;;;;5032551;28;20053;-74
2022/02/14 05:20:09;;;;;;;0.73;0.40;;;18.30;62.20;;;;;;5032404;28;20395;-75
2022/02/14 05:22:35;;;;;;;0.50;0.40;;;18.30;62.20;;;;;;5032471;28;20071;-74
2022/02/14 05:25:01;;;;;;;1.67;0.45;;;18.30;62.20;;;;;;4998307;28;20029;-74
2022/02/14 05:27:27;;;;;;;2.00;0.60;;;18.30;62.20;;;;;;5032366;28;20026;-74
2022/02/14 05:29:52;;;;;;;0.70;0.40;;;18.30;62.20;;;;;;5014925;28;20025;-74
2022/02/14 05:32:18;;;;;;;0.80;0.45;;;18.30;62.20;;;;;;5032146;28;20079;-74
2022/02/14 05:34:44;;;;;;;1.30;0.80;;;18.30;62.20;;;;;;5032369;28;20093;-74
2022/02/14 05:37:10;;;;;;;1.50;0.63;;;18.30;62.20;;;;;;5032247;28;20093;-74
2022/02/14 05:39:36;;;;;;;0.57;0.40;;;18.20;62.20;;;;;;5014470;28;20029;-74
2022/02/14 05:42:01;;;;;;;1.35;0.57;;;18.20;62.30;;;;;;5032246;28;20033;-74
2022/02/14 05:44:27;;;;;;;1.00;0.47;;;18.20;62.30;;;;;;5032299;28;20056;-74
2022/02/14 05:46:53;;;;;;;0.40;0.38;;;18.30;62.30;;;;;;5031964;28;20072;-74
2022/02/14 05:49:18;;;;;;;1.27;0.63;;;18.20;62.30;;;;;;5032269;28;20029;-74
2022/02/14 05:51:44;;;;;;;1.73;0.60;;;18.20;62.30;;;;;;5031949;28;20384;-74
2022/02/14 05:54:09;;;;;;;0.77;0.60;;;18.20;62.30;;;;;;5031843;28;20040;-74
2022/02/14 05:56:35;;;;;;;0.88;0.50;;;18.20;62.30;;;;;;5032087;28;20021;-74
2022/02/14 05:59:01;;;;;;;0.60;0.52;;;18.20;62.40;;;;;;5032092;28;20029;-74
2022/02/14 06:01:27;;;;;;;1.23;0.40;;;18.20;62.40;;;;;;5014620;28;20495;-74
2022/02/14 06:03:52;;;;;;;0.40;0.40;;;18.20;62.40;;;;;;5032161;28;20087;-74
2022/02/14 06:06:18;;;;;;;1.10;0.60;;;18.20;62.40;;;;;;4998040;28;20026;-74
2022/02/14 06:08:44;;;;;;;0.45;0.43;;;18.20;62.40;;;;;;5031864;28;20021;-74
2022/02/14 06:11:10;;;;;;;1.30;0.65;;;18.20;62.50;;;;;;5031657;28;20022;-74
2022/02/14 06:13:36;;;;;;;0.60;0.38;;;18.20;62.50;;;;;;5033907;28;20021;-74
2022/02/14 06:16:01;;;;;;;0.50;0.40;;;18.20;62.50;;;;;;5035644;28;20046;-74
2022/02/14 06:18:27;;;;;;;0.80;0.60;;;18.20;62.50;;;;;;5018232;28;20056;-74
2022/02/14 06:20:53;;;;;;;0.47;0.40;;;18.20;62.50;;;;;;5035675;28;20049;-74
2022/02/14 06:23:19;;;;;;;0.47;0.30;;;18.20;62.50;;;;;;5035365;28;20061;-74
2022/02/14 06:25:44;;;;;;;1.45;0.60;;;18.10;62.40;;;;;;5035841;28;20033;-74
2022/02/14 06:28:10;;;;;;;0.40;0.40;;;18.10;62.40;;;;;;5035570;28;20025;-74
2022/02/14 06:30:36;;;;;;;0.60;0.30;;;18.10;62.50;;;;;;5035770;28;20026;-74
2022/02/14 06:33:02;;;;;;;0.93;0.50;;;18.10;62.50;;;;;;5035306;28;20036;-74
2022/02/14 06:35:27;;;;;;;0.70;0.50;;;18.10;62.50;;;;;;5017826;28;20021;-74
2022/02/14 06:37:53;;;;;;;1.05;0.50;;;18.10;62.50;;;;;;5035324;28;20033;-74
2022/02/14 06:40:18;;;;;;;0.63;0.50;;;18.10;62.50;;;;;;5024722;28;20403;-75
2022/02/14 06:42:48;;;;;;;1.45;0.65;;;18.10;62.60;;;;;;5024373;28;20033;-75
2022/02/14 06:45:15;;;;;;;0.77;0.30;;;18.10;62.60;;;;;;5007288;28;20068;-74
2022/02/14 06:47:41;;;;;;;0.50;0.40;;;18.10;62.70;;;;;;5024532;28;20035;-75
2022/02/14 06:50:07;;;;;;;0.57;0.32;;;18.10;62.60;;;;;;5006543;28;20026;-74
2022/02/14 06:52:32;;;;;;;0.88;0.40;;;18.10;62.60;;;;;;5025884;28;20097;-74
2022/02/14 06:54:58;;;;;;;1.67;0.50;;;18.10;62.70;;;;;;5023432;28;20029;-74
2022/02/14 06:57:23;;;;;;;1.35;0.55;;;18.10;63.00;;;;;;5023752;28;20460;-74
2022/02/14 06:59:49;;;;;;;1.13;0.55;;;18.10;62.70;;;;;;5024026;28;20030;-74
2022/02/14 07:02:15;;;;;;;2.13;0.73;;;18.10;62.70;;;;;;5025541;28;20028;-74
2022/02/14 07:04:40;;;;;;;1.35;0.65;;;18.10;62.70;;;;;;5023771;28;20427;-73
2022/02/14 07:07:06;;;;;;;0.60;0.43;;;18.10;62.80;;;;;;5005459;28;20034;-73
2022/02/14 07:09:32;;;;;;;1.05;0.30;;;18.10;63.20;;;;;;5010334;28;20033;-72
2022/02/14 07:11:58;;;;;;;0.57;0.30;;;18.10;62.80;;;;;;5025280;28;20032;-73
2022/02/14 07:14:24;;;;;;;0.68;0.32;;;18.10;62.80;;;;;;5009994;28;20025;-73
2022/02/14 07:16:50;;;;;;;0.40;0.25;;;18.10;62.80;;;;;;5023136;28;20037;-72
2022/02/14 07:19:16;;;;;;;0.43;0.20;;;18.10;62.80;;;;;;5024835;28;20013;-73
2022/02/14 07:21:41;;;;;;;0.30;0.20;;;18.10;62.80;;;;;;5022195;28;20037;-73
2022/02/14 07:24:08;;;;;;;0.75;0.22;;;18.10;62.70;;;;;;5006827;28;20480;-72
2022/02/14 07:26:34;;;;;;;0.45;0.17;;;18.20;62.70;;;;;;5022948;28;20024;-73
2022/02/14 07:28:59;;;;;;;0.20;0.20;;;18.20;62.80;;;;;;5023677;28;20030;-72
2022/02/14 07:31:25;;;;;;;1.38;0.30;;;18.20;62.70;;;;;;5005153;28;20490;-73
2022/02/14 07:33:51;;;;;;;2.30;0.60;;;18.20;62.70;;;;;;5005589;28;20025;-71
2022/02/14 07:36:16;;;;;;;3.55;0.60;;;18.20;62.70;;;;;;5027414;28;20092;-74
2022/02/14 07:38:42;;;;;;;4.90;1.20;;;18.20;62.70;;;;;;5029861;28;20026;-74
2022/02/14 07:41:08;;;;;;;6.68;1.38;;;18.20;62.70;;;;;;5033930;28;20021;-74
2022/02/14 07:43:33;;;;;;;4.18;1.08;;;18.20;62.70;;;;;;5016379;28;20443;-74
2022/02/14 07:45:59;;;;;;;4.28;1.27;;;18.20;62.70;;;;;;5034326;28;20028;-73
2022/02/14 07:48:25;;;;;;;8.27;1.60;;;18.20;62.70;;;;;;5000211;28;20024;-74
2022/02/14 07:50:50;;;;;;;5.90;1.40;;;18.20;62.70;;;;;;5033765;28;20399;-74
2022/02/14 07:53:18;;;;;;;4.20;1.05;;;18.30;62.70;;;;;;5033844;28;20037;-73
2022/02/14 07:55:43;;;;;;;3.95;1.13;;;18.30;62.70;;;;;;5033988;28;20026;-74
2022/02/14 07:58:09;;;;;;;5.78;1.70;;;18.30;62.70;;;;;;5016241;28;20025;-73
2022/02/14 08:00:36;;;;;;;4.40;0.80;;;18.30;62.70;;;;;;5010222;28;20387;-74
2022/02/14 08:03:01;;;;;;;3.92;1.10;;;18.30;62.70;;;;;;5026636;28;20453;-73
2022/02/14 08:05:27;;;;;;;3.08;1.30;;;18.30;62.70;;;;;;5018448;28;20029;-74
2022/02/14 08:07:52;;;;;;;6.57;1.48;;;18.30;62.70;;;;;;5013792;28;20528;-74
2022/02/14 08:10:18;;;;;;;3.22;1.23;;;18.30;62.70;;;;;;5033484;28;20037;-73
2022/02/14 08:12:44;;;;;;;4.32;1.10;;;18.30;62.70;;;;;;5016242;28;20033;-74
2022/02/14 08:15:10;;;;;;;4.68;1.42;;;18.30;62.60;;;;;;5033270;28;20439;-73
2022/02/14 08:17:36;;;;;;;6.18;1.60;;;18.30;62.70;;;;;;5015790;28;20021;-74
2022/02/14 08:20:02;;;;;;;6.22;1.48;;;18.40;62.70;;;;;;5016004;28;20021;-73
2022/02/14 08:22:28;;;;;;;4.45;1.00;;;18.40;62.70;;;;;;5033650;28;20079;-73
2022/02/14 08:24:53;;;;;;;3.72;1.23;;;18.30;62.60;;;;;;5015984;28;20045;-73
2022/02/14 08:27:19;;;;;;;2.85;1.00;;;18.40;62.70;;;;;;5033506;28;20483;-73
2022/02/14 08:29:46;;;;;;;3.65;0.93;;;18.40;62.70;;;;;;5015906;28;20131;-74
2022/02/14 08:32:16;;;;;;;4.15;1.17;;;18.40;62.70;;;;;;4999246;28;20063;-74
2022/02/14 08:34:41;;;;;;;3.25;1.02;;;18.40;62.70;;;;;;5006426;28;20083;-73
2022/02/14 08:37:08;;;;;;;4.88;1.50;;;18.40;62.70;;;;;;4995136;28;20528;-73
2022/02/14 08:39:34;;;;;;;4.72;1.45;;;18.40;62.60;;;;;;5013673;28;20503;-73
2022/02/14 08:41:59;;;;;;;3.30;1.08;;;18.40;62.60;;;;;;4996080;28;20030;-73
2022/02/14 08:44:25;;;;;;;4.57;1.40;;;18.40;62.60;;;;;;5013330;28;20036;-73
2022/02/14 08:46:51;;;;;;;3.00;1.20;;;18.40;62.60;;;;;;5012984;28;20446;-74
2022/02/14 08:49:16;;;;;;;3.75;1.00;;;18.40;62.60;;;;;;5013220;28;20441;-73
2022/02/14 08:51:42;;;;;;;4.90;0.70;;;18.40;62.60;;;;;;5014340;28;20381;-73
2022/02/14 08:54:07;;;;;;;3.05;1.23;;;18.40;62.60;;;;;;5015412;28;20143;-73
2022/02/14 08:56:33;;;;;;;2.38;1.02;;;18.40;62.60;;;;;;5015555;28;20032;-73
2022/02/14 08:58:59;;;;;;;3.10;0.70;;;18.40;62.70;;;;;;5032910;28;20396;-73
2022/02/14 09:01:24;;;;;;;2.53;1.05;;;18.40;62.60;;;;;;5032516;28;20025;-74
2022/02/14 09:03:52;;;;;;;3.53;1.23;;;18.40;62.60;;;;;;5032953;28;20018;-73
2022/02/14 09:06:18;;;;;;;1.33;0.80;;;18.40;62.60;;;;;;5032645;28;20419;-73
2022/02/14 09:08:43;;;;;;;2.67;1.08;;;18.50;62.70;;;;;;5023700;28;20022;-73
2022/02/14 09:11:09;;;;;;;1.45;0.70;;;18.50;62.70;;;;;;5012828;28;20030;-73
2022/02/14 09:13:36;;;;;;;2.88;1.25;;;18.40;62.60;;;;;;4995816;28;20056;-73
2022/02/14 09:16:04;;;;;;;3.28;0.93;;;18.40;62.60;;;;;;4979160;28;20676;-74
2022/02/14 09:18:33;;;;;;;2.60;0.90;;;18.50;62.70;;;;;;4995535;28;20045;-73
2022/02/14 09:20:59;;;;;;;4.07;0.90;;;18.40;62.60;;;;;;4995200;28;20022;-73
2022/02/14 09:23:24;;;;;;;1.60;0.68;;;18.40;62.70;;;;;;5012794;28;20029;-73
2022/02/14 09:25:50;;;;;;;2.40;0.82;;;18.50;62.70;;;;;;5012960;28;20030;-73
2022/02/14 09:28:16;;;;;;;3.13;0.93;;;18.40;62.60;;;;;;5012728;28;20026;-73
2022/02/14 09:30:41;;;;;;;2.00;1.02;;;18.50;62.70;;;;;;5012342;28;20084;-74
2022/02/14 09:33:07;;;;;;;3.35;1.02;;;18.40;62.60;;;;;;5012600;28;20032;-73
2022/02/14 09:35:33;;;;;;;3.35;0.75;;;18.50;62.70;;;;;;5012636;28;20033;-73
2022/02/14 09:38:00;;;;;;;1.88;0.70;;;18.50;62.60;;;;;;5012733;28;20018;-73
2022/02/14 09:40:26;;;;;;;1.88;1.00;;;18.50;62.60;;;;;;4995300;28;20472;-73
2022/02/14 09:42:55;;;;;;;2.50;0.75;;;18.40;62.60;;;;;;4995070;28;20034;-73
2022/02/14 09:45:24;;;;;;;1.90;0.80;;;18.50;63.70;;;;;;5012069;28;20037;-73
2022/02/14 09:48:01;;;;;;;1.52;0.90;;;18.50;62.70;;;;;;4996179;28;20018;-73
2022/02/14 09:50:28;;;;;;;2.45;0.85;;;18.50;62.50;;;;;;4983271;28;20072;-73
2022/02/14 09:52:54;;;;;;;1.90;0.60;;;18.40;62.60;;;;;;5006535;28;20049;-73
2022/02/14 09:55:20;;;;;;;1.83;0.73;;;18.50;62.60;;;;;;5015303;28;20034;-73
2022/02/14 09:57:45;;;;;;;1.70;0.40;;;18.50;62.60;;;;;;5015354;28;20564;-73
2022/02/14 10:00:11;;;;;;;2.13;0.77;;;18.40;62.60;;;;;;5016179;28;20443;-73
2022/02/14 10:02:37;;;;;;;2.17;1.02;;;18.50;62.60;;;;;;5016365;28;20026;-74
2022/02/14 10:05:07;;;;;;;1.40;0.70;;;18.50;62.60;;;;;;5016385;28;20519;-73
2022/02/14 10:07:46;;;;;;;0.85;0.60;;;18.40;62.60;;;;;;5016227;28;20018;-73
2022/02/14 10:10:15;;;;;;;1.13;0.50;;;18.50;62.50;;;;;;4999411;28;20026;-73
2022/02/14 10:12:45;;;;;;;2.70;0.70;;;18.50;62.60;;;;;;5016245;28;20026;-73
2022/02/14 10:15:11;;;;;;;2.15;0.88;;;18.40;62.50;;;;;;4998820;28;20026;-73
2022/02/14 10:17:44;;;;;;;1.63;0.50;;;18.40;62.60;;;;;;5016088;28;20048;-73
2022/02/14 10:20:11;;;;;;;1.67;0.38;;;18.50;62.50;;;;;;4999791;28;20026;-74
2022/02/14 10:22:59;;;;;;;1.27;0.73;;;18.50;62.50;;;;;;5016056;28;20084;-73
2022/02/14 10:25:25;;;;;;;1.45;0.68;;;18.50;62.40;;;;;;4998612;28;20061;-74
2022/02/14 10:27:51;;;;;;;3.28;0.68;;;18.40;62.50;;;;;;5016266;28;20088;-74
2022/02/14 10:30:17;;;;;;;2.58;0.88;;;18.40;62.50;;;;;;5015877;28;20026;-74
2022/02/14 10:32:52;;;;;;;1.90;0.60;;;18.40;62.50;;;;;;5015980;28;20059;-73
2022/02/14 10:35:18;;;;;;;1.95;0.60;;;18.50;62.50;;;;;;4998998;28;20504;-73
2022/02/14 10:37:44;;;;;;;0.88;0.52;;;18.50;62.50;;;;;;5015788;28;20018;-73
2022/02/14 10:40:11;;;;;;;1.05;0.68;;;18.40;62.50;;;;;;4982096;28;20018;-73
2022/02/14 10:42:37;;;;;;;0.85;0.60;;;18.40;62.40;;;;;;4998110;28;20066;-74
2022/02/14 10:45:11;;;;;;;1.00;0.38;;;18.50;62.50;;;;;;4998256;28;20558;-74
2022/02/14 10:47:41;;;;;;;1.15;0.50;;;18.50;62.40;;;;;;5015429;28;20061;-74
2022/02/14 10:50:11;;;;;;;0.90;0.45;;;18.40;62.40;;;;;;4998158;28;20021;-74
2022/02/14 10:52:38;;;;;;;0.93;0.40;;;18.50;62.50;;;;;;5024051;28;20025;-73
2022/02/14 10:55:06;;;;;;;2.00;0.50;;;18.50;62.50;;;;;;5035330;28;20381;-73
2022/02/14 10:57:33;;;;;;;2.17;0.50;;;18.40;62.40;;;;;;5000706;28;20468;-74
2022/02/14 11:00:08;;;;;;;0.75;0.40;;;18.40;62.30;;;;;;5016773;28;20013;-74
2022/02/14 11:02:34;;;;;;;1.65;0.60;;;18.40;62.30;;;;;;5035175;28;20108;-73
2022/02/14 11:05:00;;;;;;;1.23;0.50;;;18.40;62.40;;;;;;5035213;28;20465;-73
2022/02/14 11:07:26;;;;;;;1.33;0.80;;;18.40;62.30;;;;;;5035188;28;20029;-74
2022/02/14 11:09:53;;;;;;;1.27;0.40;;;18.40;62.40;;;;;;5017243;28;20053;-74
2022/02/14 11:12:20;;;;;;;1.00;0.47;;;18.50;62.40;;;;;;5017174;28;20026;-74
2022/02/14 11:14:55;;;;;;;1.25;0.60;;;18.40;62.30;;;;;;5017121;28;20140;-73
2022/02/14 11:17:28;;;;;;;1.02;0.47;;;18.50;62.40;;;;;;5003178;28;20053;-73
2022/02/14 11:19:55;;;;;;;1.35;0.40;;;18.40;62.30;;;;;;5017798;28;20025;-73
2022/02/14 11:22:22;;;;;;;0.60;0.32;;;18.40;62.30;;;;;;5017026;28;20025;-73
2022/02/14 11:24:50;;;;;;;1.30;0.35;;;18.40;62.30;;;;;;5017228;28;20091;-74
2022/02/14 11:27:18;;;;;;;0.88;0.47;;;18.50;62.30;;;;;;5000594;28;20103;-74
2022/02/14 11:29:51;;;;;;;2.15;0.40;;;18.40;62.30;;;;;;5001037;28;20032;-74
2022/02/14 11:32:24;;;;;;;0.47;0.20;;;18.40;62.20;;;;;;5016925;28;20021;-73
2022/02/14 11:34:50;;;;;;;0.70;0.30;;;18.40;62.30;;;;;;5001210;28;20561;-73
2022/02/14 11:37:16;;;;;;;0.28;0.28;;;18.40;62.30;;;;;;5034488;28;20151;-73
2022/02/14 11:39:42;;;;;;;0.77;0.40;;;18.40;62.20;;;;;;5000494;28;20104;-73
2022/02/14 11:42:08;;;;;;;1.05;0.55;;;18.50;62.30;;;;;;5034155;28;20026;-73
2022/02/14 11:44:33;;;;;;;1.90;0.55;;;18.50;62.30;;;;;;5016650;28;20049;-73
2022/02/14 11:46:59;;;;;;;1.75;0.50;;;18.40;62.20;;;;;;5000321;28;20123;-73
2022/02/14 11:49:50;;;;;;;1.23;0.52;;;18.40;62.20;;;;;;5034279;28;20513;-73
2022/02/14 11:52:30;;;;;;;1.77;0.45;;;18.50;62.30;;;;;;5033858;28;20145;-73
2022/02/14 11:54:57;;;;;;;0.93;0.35;;;18.50;62.20;;;;;;5034195;28;20032;-73
2022/02/14 11:57:48;;;;;;;0.77;0.32;;;18.40;62.20;;;;;;5016058;28;20048;-74
2022/02/14 12:00:19;;;;;;;0.65;0.40;;;18.50;62.20;;;;;;5034138;28;20017;-73
2022/02/14 12:02:56;;;;;;;0.60;0.35;;;18.40;63.30;;;;;;5033966;28;20056;-74
2022/02/14 12:05:37;;;;;;;1.23;0.35;;;18.40;62.20;;;;;;5016461;28;20068;-73
2022/02/14 12:08:03;;;;;;;0.95;0.30;;;18.50;62.20;;;;;;5033864;28;20025;-74
2022/02/14 12:10:29;;;;;;;0.38;0.30;;;18.40;62.20;;;;;;5033344;28;20025;-73
2022/02/14 12:12:59;;;;;;;0.90;0.50;;;18.40;62.20;;;;;;5016153;28;20484;-73
2022/02/14 12:21:04;;;;;;;1.38;0.30;;;18.40;62.20;;;;;;5033573;28;20455;-73
2022/02/14 12:23:39;;;;;;;0.30;0.30;;;18.40;62.20;;;;;;5033586;28;20072;-74
2022/02/14 12:26:05;;;;;;;1.17;0.32;;;18.40;62.20;;;;;;5016143;28;20115;-74
2022/02/14 12:28:31;;;;;;;1.45;0.40;;;18.40;62.20;;;;;;5015878;28;20424;-73
2022/02/14 12:30:57;;;;;;;1.27;0.50;;;18.40;62.20;;;;;;5033360;28;20108;-74
2022/02/14 12:33:23;;;;;;;0.93;0.40;;;18.40;62.20;;;;;;5015811;28;20488;-73
2022/02/14 12:35:53;;;;;;;0.80;0.30;;;18.40;62.20;;;;;;5015730;28;20033;-73
2022/02/14 12:38:19;;;;;;;1.27;0.60;;;18.40;62.20;;;;;;5015745;28;20009;-73
2022/02/14 12:40:54;;;;;;;0.98;0.38;;;18.40;63.20;;;;;;5032978;28;20029;-73
2022/02/14 12:43:33;;;;;;;0.30;0.20;;;18.50;62.10;;;;;;5015676;28;20029;-73
2022/02/14 12:46:03;;;;;;;1.38;0.40;;;18.50;62.10;;;;;;5016395;28;20087;-73
2022/02/14 12:48:30;;;;;;;0.93;0.30;;;18.40;62.10;;;;;;5015420;28;20026;-73
2022/02/14 12:50:55;;;;;;;0.80;0.50;;;18.40;62.00;;;;;;5015698;28;20112;-73